createdAt,value
2018-07-24T00:00:04.037Z,22.20
2018-07-24T00:01:04.011Z,22.80
2018-07-24T00:02:03.980Z,23.20
2018-07-24T00:03:03.940Z,22.80
2018-07-24T00:04:03.958Z,22.90
2018-07-24T00:05:03.874Z,22.30
2018-07-24T00:06:03.826Z,22.20
2018-07-24T00:07:03.890Z,22.60
2018-07-24T00:08:03.763Z,23.70
2018-07-24T00:09:03.721Z,22.30
2018-07-24T00:10:03.707Z,23.10
2018-07-24T00:11:03.737Z,23.30
2018-07-24T00:12:03.624Z,23.70
2018-07-24T00:13:03.584Z,23.20
2018-07-24T00:14:03.548Z,23.80
2018-07-24T00:15:03.535Z,24.00
2018-07-24T00:16:03.486Z,24.00
2018-07-24T00:17:03.463Z,23.00
2018-07-24T00:18:03.418Z,24.20
2018-07-24T00:19:03.393Z,24.00
2018-07-24T00:20:03.334Z,25.30
2018-07-24T00:21:03.324Z,23.70
2018-07-24T00:22:03.261Z,24.20
2018-07-24T00:23:03.242Z,23.90
2018-07-24T00:24:03.202Z,24.60
2018-07-24T00:25:03.166Z,24.50
2018-07-24T00:26:03.134Z,24.90
2018-07-24T00:27:03.111Z,25.30
2018-07-24T00:28:03.057Z,25.20
2018-07-24T00:29:03.051Z,26.00
2018-07-24T00:30:02.981Z,25.40
2018-07-24T00:31:02.949Z,25.30
2018-07-24T00:32:02.972Z,25.50
2018-07-24T00:33:02.893Z,25.10
2018-07-24T00:34:02.856Z,24.90
2018-07-24T00:35:02.820Z,24.60
2018-07-24T00:36:02.775Z,24.30
2018-07-24T00:37:02.825Z,24.00
2018-07-24T00:38:02.726Z,22.90
2018-07-24T00:39:02.681Z,24.90
2018-07-24T00:40:02.669Z,25.10
2018-07-24T00:41:02.603Z,26.00
2018-07-24T00:42:02.574Z,25.30
2018-07-24T00:43:02.532Z,24.40
2018-07-24T00:44:02.496Z,25.10
2018-07-24T00:45:02.456Z,23.80
2018-07-24T00:46:02.434Z,23.90
2018-07-24T00:47:02.551Z,24.40
2018-07-24T00:48:02.377Z,25.00
2018-07-24T00:49:02.321Z,25.80
2018-07-24T00:50:02.285Z,26.10
2018-07-24T00:51:02.254Z,25.30
2018-07-24T00:52:02.241Z,26.00
2018-07-24T00:53:02.164Z,26.60
2018-07-24T00:54:02.151Z,23.10
2018-07-24T00:55:02.121Z,23.70
2018-07-24T00:56:02.076Z,24.10
2018-07-24T00:57:02.035Z,24.70
2018-07-24T00:58:01.995Z,25.60
2018-07-24T00:59:01.957Z,27.30
2018-07-24T01:00:01.945Z,26.60
2018-07-24T01:01:01.930Z,24.50
2018-07-24T01:02:01.878Z,24.20
2018-07-24T01:03:01.828Z,24.10
2018-07-24T01:04:01.795Z,25.20
2018-07-24T01:05:01.758Z,26.00
2018-07-24T01:06:01.737Z,26.50
2018-07-24T01:07:01.706Z,25.90
2018-07-24T01:08:01.661Z,23.70
2018-07-24T01:09:01.604Z,26.00
2018-07-24T01:10:01.586Z,25.90
2018-07-24T01:11:01.562Z,26.40
2018-07-24T01:12:01.512Z,26.90
2018-07-24T01:13:01.491Z,27.60
2018-07-24T01:14:01.449Z,29.30
2018-07-24T01:15:01.404Z,28.80
2018-07-24T01:16:01.361Z,27.50
2018-07-24T01:17:01.326Z,28.50
2018-07-24T01:18:01.317Z,26.50
2018-07-24T01:19:01.263Z,28.30
2018-07-24T01:20:01.222Z,29.20
2018-07-24T01:21:01.187Z,25.80
2018-07-24T01:22:01.154Z,28.20
2018-07-24T01:23:01.160Z,28.40
2018-07-24T01:24:01.094Z,30.30
2018-07-24T01:25:01.047Z,29.90
2018-07-24T01:26:01.009Z,30.50
2018-07-24T01:27:00.989Z,30.00
2018-07-24T01:28:00.971Z,29.10
2018-07-24T01:29:00.902Z,29.40
2018-07-24T01:30:00.880Z,29.10
2018-07-24T01:31:00.834Z,27.20
2018-07-24T01:32:00.790Z,28.60
2018-07-24T01:33:00.773Z,29.20
2018-07-24T01:34:00.741Z,30.30
2018-07-24T01:35:00.688Z,29.10
2018-07-24T01:36:00.660Z,28.20
2018-07-24T01:37:00.620Z,27.90
2018-07-24T01:38:00.580Z,29.10
2018-07-24T01:39:00.559Z,29.00
2018-07-24T01:40:00.515Z,29.70
2018-07-24T01:41:00.478Z,29.30
2018-07-24T01:42:00.447Z,29.70
2018-07-24T01:43:00.406Z,28.90
2018-07-24T01:44:00.380Z,30.40
2018-07-24T01:45:00.353Z,30.10
2018-07-24T01:46:00.313Z,30.20
2018-07-24T01:47:00.294Z,31.40
2018-07-24T01:48:00.232Z,31.70
2018-07-24T01:49:00.182Z,31.20
2018-07-24T01:50:00.169Z,28.10
2018-07-24T01:51:00.124Z,28.40
2018-07-24T01:52:00.094Z,29.10
2018-07-24T01:53:00.054Z,29.50
2018-07-24T01:54:00.015Z,30.70
2018-07-24T01:55:00.018Z,30.80
2018-07-24T01:55:59.942Z,30.50
2018-07-24T01:56:59.943Z,32.40
2018-07-24T01:57:59.868Z,31.80
2018-07-24T01:58:59.844Z,32.50
2018-07-24T01:59:59.804Z,31.70
2018-07-24T02:00:59.765Z,30.80
2018-07-24T02:01:59.732Z,32.20
2018-07-24T02:02:59.686Z,31.20
2018-07-24T02:03:59.667Z,31.30
2018-07-24T02:04:59.648Z,28.60
2018-07-24T02:05:59.583Z,29.00
2018-07-24T02:06:59.548Z,27.40
2018-07-24T02:07:59.508Z,29.80
2018-07-24T02:08:59.488Z,27.60
2018-07-24T02:09:59.447Z,27.60
2018-07-24T02:10:59.392Z,29.10
2018-07-24T02:11:59.375Z,29.60
2018-07-24T02:12:59.347Z,30.30
2018-07-24T02:13:59.306Z,30.00
2018-07-24T02:14:59.267Z,28.90
2018-07-24T02:15:59.237Z,31.00
2018-07-24T02:16:59.199Z,32.10
2018-07-24T02:17:59.151Z,30.80
2018-07-24T02:18:59.126Z,31.30
2018-07-24T02:19:59.077Z,30.50
2018-07-24T02:20:59.064Z,32.00
2018-07-24T02:21:59.016Z,32.90
2018-07-24T02:22:58.977Z,31.60
2018-07-24T02:23:58.934Z,31.50
2018-07-24T02:24:58.912Z,31.80
2018-07-24T02:25:58.867Z,33.00
2018-07-24T02:26:58.921Z,32.10
2018-07-24T02:27:58.813Z,31.30
2018-07-24T02:28:58.757Z,31.50
2018-07-24T02:29:58.726Z,32.60
2018-07-24T02:30:58.703Z,32.50
2018-07-24T02:31:58.681Z,32.80
2018-07-24T02:32:58.626Z,32.00
2018-07-24T02:33:58.583Z,32.30
2018-07-24T02:34:58.535Z,31.90
2018-07-24T02:35:58.501Z,32.20
2018-07-24T02:36:58.484Z,33.00
2018-07-24T02:37:58.444Z,32.20
2018-07-24T02:38:58.399Z,31.70
2018-07-24T02:39:58.375Z,31.20
2018-07-24T02:40:58.338Z,31.60
2018-07-24T02:41:58.301Z,29.70
2018-07-24T02:42:58.264Z,29.50
2018-07-24T02:43:58.211Z,28.70
2018-07-24T02:44:58.190Z,29.60
2018-07-24T02:45:58.144Z,29.80
2018-07-24T02:46:58.150Z,29.30
2018-07-24T02:47:58.072Z,29.40
2018-07-24T02:48:58.049Z,29.10
2018-07-24T02:49:58.013Z,28.70
2018-07-24T02:50:57.965Z,28.30
2018-07-24T02:51:57.950Z,29.10
2018-07-24T02:52:57.893Z,29.50
2018-07-24T02:53:57.874Z,31.80
2018-07-24T02:54:57.852Z,31.50
2018-07-24T02:55:57.787Z,31.90
2018-07-24T02:56:57.753Z,31.60
2018-07-24T02:57:57.724Z,31.20
2018-07-24T02:58:57.681Z,33.40
2018-07-24T02:59:57.669Z,33.80
2018-07-24T03:00:57.604Z,32.00
2018-07-24T03:01:57.582Z,31.10
2018-07-24T03:02:57.537Z,33.00
2018-07-24T03:03:57.499Z,32.70
2018-07-24T03:04:57.483Z,33.90
2018-07-24T03:05:57.441Z,32.50
2018-07-24T03:06:57.394Z,33.70
2018-07-24T03:07:57.364Z,33.00
2018-07-24T03:08:57.329Z,32.60
2018-07-24T03:09:57.280Z,32.10
2018-07-24T03:10:57.298Z,33.20
2018-07-24T03:11:57.219Z,33.40
2018-07-24T03:12:57.203Z,34.30
2018-07-24T03:13:57.160Z,34.30
2018-07-24T03:14:57.131Z,31.90
2018-07-24T03:15:57.068Z,32.40
2018-07-24T03:16:57.038Z,32.50
2018-07-24T03:17:56.999Z,32.40
2018-07-24T03:18:56.971Z,31.10
2018-07-24T03:19:56.927Z,32.10
2018-07-24T03:20:56.905Z,31.80
2018-07-24T03:21:56.874Z,30.10
2018-07-24T03:22:56.836Z,31.00
2018-07-24T03:23:56.778Z,30.90
2018-07-24T03:24:56.751Z,32.10
2018-07-24T03:25:56.735Z,33.50
2018-07-24T03:26:56.674Z,33.00
2018-07-24T03:27:56.653Z,34.30
2018-07-24T03:28:56.598Z,33.80
2018-07-24T03:29:56.593Z,34.20
2018-07-24T03:30:56.568Z,34.40
2018-07-24T03:31:56.516Z,33.70
2018-07-24T03:32:56.456Z,33.30
2018-07-24T03:33:56.411Z,34.00
2018-07-24T03:34:56.373Z,31.90
2018-07-24T03:35:56.352Z,29.70
2018-07-24T03:36:56.317Z,30.50
2018-07-24T03:37:56.290Z,31.60
2018-07-24T03:38:56.241Z,31.10
2018-07-24T03:39:56.218Z,31.30
2018-07-24T03:40:56.231Z,32.40
2018-07-24T03:41:56.119Z,31.90
2018-07-24T03:42:56.112Z,33.10
2018-07-24T03:43:56.060Z,33.20
2018-07-24T03:44:56.029Z,34.00
2018-07-24T03:45:55.984Z,34.30
2018-07-24T03:46:55.967Z,30.80
2018-07-24T03:47:55.925Z,31.70
2018-07-24T03:48:55.868Z,30.10
2018-07-24T03:49:55.857Z,32.20
2018-07-24T03:50:55.812Z,31.80
2018-07-24T03:51:55.768Z,32.60
2018-07-24T03:52:55.764Z,33.60
2018-07-24T03:53:55.712Z,33.20
2018-07-24T03:54:55.677Z,34.50
2018-07-24T03:55:55.636Z,34.70
2018-07-24T03:56:55.616Z,35.30
2018-07-24T03:57:55.612Z,35.50
2018-07-24T03:58:55.513Z,34.50
2018-07-24T03:59:55.472Z,35.30
2018-07-24T04:00:55.452Z,35.80
2018-07-24T04:01:55.398Z,35.70
2018-07-24T04:02:55.361Z,36.50
2018-07-24T04:03:55.325Z,35.30
2018-07-24T04:04:55.302Z,35.60
2018-07-24T04:05:55.261Z,35.00
2018-07-24T04:06:55.226Z,34.50
2018-07-24T04:07:55.188Z,34.80
2018-07-24T04:08:55.174Z,34.50
2018-07-24T04:09:55.118Z,33.50
2018-07-24T04:10:55.077Z,34.40
2018-07-24T04:11:55.073Z,33.70
2018-07-24T04:12:55.002Z,34.10
2018-07-24T04:13:54.973Z,33.10
2018-07-24T04:14:54.938Z,32.60
2018-07-24T04:15:54.903Z,32.20
2018-07-24T04:16:54.863Z,30.60
2018-07-24T04:17:54.823Z,30.60
2018-07-24T04:18:54.781Z,30.70
2018-07-24T04:19:54.752Z,28.90
2018-07-24T04:20:54.717Z,30.60
2018-07-24T04:21:54.676Z,30.30
2018-07-24T04:22:54.650Z,29.80
2018-07-24T04:23:54.615Z,30.20
2018-07-24T04:24:54.572Z,29.80
2018-07-24T04:25:54.545Z,29.00
2018-07-24T04:26:54.508Z,29.10
2018-07-24T04:27:54.467Z,29.10
2018-07-24T04:28:54.428Z,29.30
2018-07-24T04:29:54.444Z,28.70
2018-07-24T04:30:54.412Z,27.10
2018-07-24T04:31:54.338Z,26.60
2018-07-24T04:32:54.284Z,25.50
2018-07-24T04:33:54.266Z,24.70
2018-07-24T04:34:54.230Z,24.80
2018-07-24T04:35:54.181Z,24.50
2018-07-24T04:36:54.173Z,24.70
2018-07-24T04:37:54.204Z,23.90
2018-07-24T04:38:54.086Z,24.10
2018-07-24T04:39:54.083Z,23.00
2018-07-24T04:40:54.044Z,22.90
2018-07-24T04:41:53.992Z,22.40
2018-07-24T04:42:53.934Z,22.00
2018-07-24T04:43:53.908Z,23.60
2018-07-24T04:44:53.884Z,22.30
2018-07-24T04:45:53.864Z,22.70
2018-07-24T04:46:53.801Z,23.10
2018-07-24T04:47:53.764Z,22.90
2018-07-24T04:48:53.744Z,23.10
2018-07-24T04:49:53.701Z,22.90
2018-07-24T04:50:53.665Z,23.20
2018-07-24T04:51:53.652Z,20.80
2018-07-24T04:52:53.628Z,21.70
2018-07-24T04:53:53.562Z,21.20
2018-07-24T04:54:53.508Z,20.20
2018-07-24T04:55:53.479Z,20.50
2018-07-24T04:56:53.450Z,19.40
2018-07-24T04:57:53.425Z,20.20
2018-07-24T04:58:53.400Z,20.20
2018-07-24T04:59:53.335Z,19.50
2018-07-24T05:00:53.305Z,19.60
2018-07-24T05:01:53.324Z,19.20
2018-07-24T05:02:53.248Z,19.10
2018-07-24T05:03:53.224Z,19.50
2018-07-24T05:04:53.193Z,19.10
2018-07-24T05:05:53.135Z,17.50
2018-07-24T05:06:53.114Z,18.40
2018-07-24T05:07:53.916Z,18.10
2018-07-24T05:08:53.036Z,17.70
2018-07-24T05:09:53.014Z,17.10
2018-07-24T05:10:52.962Z,16.30
2018-07-24T05:11:52.923Z,15.90
2018-07-24T05:12:52.895Z,15.80
2018-07-24T05:13:52.892Z,15.40
2018-07-24T05:14:52.850Z,15.90
2018-07-24T05:15:52.806Z,15.70
2018-07-24T05:16:52.774Z,15.10
2018-07-24T05:17:52.773Z,14.80
2018-07-24T05:18:52.716Z,14.00
2018-07-24T05:19:52.683Z,14.80
2018-07-24T05:20:52.635Z,15.50
2018-07-24T05:21:52.611Z,14.60
2018-07-24T05:22:52.580Z,14.00
2018-07-24T05:23:52.554Z,14.40
2018-07-24T05:24:52.518Z,13.40
2018-07-24T05:25:52.592Z,13.10
2018-07-24T05:26:52.468Z,13.20
2018-07-24T05:27:52.438Z,12.50
2018-07-24T05:28:52.430Z,12.80
2018-07-24T05:29:52.378Z,13.40
2018-07-24T05:30:52.351Z,12.80
2018-07-24T05:31:52.311Z,12.00
2018-07-24T05:32:52.291Z,11.90
2018-07-24T05:33:52.239Z,12.60
2018-07-24T05:34:52.235Z,12.70
2018-07-24T05:35:52.192Z,12.60
2018-07-24T05:36:52.165Z,12.30
2018-07-24T05:37:52.140Z,12.40
2018-07-24T05:38:52.156Z,11.80
2018-07-24T05:39:52.086Z,13.20
2018-07-24T05:40:52.069Z,12.00
2018-07-24T05:41:52.021Z,12.60
2018-07-24T05:42:51.987Z,13.30
2018-07-24T05:43:51.968Z,13.20
2018-07-24T05:44:51.972Z,13.00
2018-07-24T05:45:51.916Z,13.30
2018-07-24T05:46:51.942Z,13.70
2018-07-24T05:47:51.901Z,13.60
2018-07-24T05:48:51.855Z,13.30
2018-07-24T05:49:51.800Z,14.00
2018-07-24T05:50:51.778Z,14.00
2018-07-24T05:51:51.753Z,14.20
2018-07-24T05:52:51.727Z,14.90
2018-07-24T05:53:51.698Z,14.20
2018-07-24T05:54:51.745Z,14.80
2018-07-24T05:55:51.664Z,14.90
2018-07-24T05:56:51.622Z,14.90
2018-07-24T05:57:51.648Z,14.40
2018-07-24T05:58:51.583Z,14.00
2018-07-24T05:59:51.594Z,15.60
2018-07-24T06:00:51.536Z,14.20
2018-07-24T06:01:51.479Z,15.30
2018-07-24T06:02:51.426Z,14.90
2018-07-24T06:03:51.449Z,14.80
2018-07-24T06:04:51.405Z,15.30
2018-07-24T06:05:51.342Z,15.50
2018-07-24T06:06:51.393Z,14.60
2018-07-24T06:07:51.362Z,16.00
2018-07-24T06:08:51.277Z,15.40
2018-07-24T06:09:51.214Z,15.60
2018-07-24T06:10:51.195Z,14.90
2018-07-24T06:11:51.170Z,15.60
2018-07-24T06:12:51.227Z,15.30
2018-07-24T06:13:51.113Z,15.30
2018-07-24T06:14:51.088Z,15.10
2018-07-24T06:15:51.050Z,15.70
2018-07-24T06:16:51.083Z,15.80
2018-07-24T06:17:50.991Z,15.40
2018-07-24T06:18:51.002Z,15.50
2018-07-24T06:19:51.021Z,15.30
2018-07-24T06:20:50.890Z,15.40
2018-07-24T06:21:50.865Z,15.10
2018-07-24T06:22:50.846Z,15.00
2018-07-24T06:23:50.803Z,15.10
2018-07-24T06:24:50.803Z,15.70
2018-07-24T06:25:50.747Z,14.60
2018-07-24T06:26:50.706Z,15.00
2018-07-24T06:27:50.680Z,13.60
2018-07-24T06:28:50.656Z,15.30
2018-07-24T06:29:50.649Z,14.50
2018-07-24T06:30:50.587Z,13.70
2018-07-24T06:31:50.556Z,13.80
2018-07-24T06:32:50.536Z,13.60
2018-07-24T06:33:50.504Z,13.70
2018-07-24T06:34:50.472Z,13.70
2018-07-24T06:35:50.436Z,13.30
2018-07-24T06:36:50.429Z,13.40
2018-07-24T06:37:50.399Z,12.50
2018-07-24T06:38:50.357Z,12.30
2018-07-24T06:39:50.370Z,12.80
2018-07-24T06:40:50.284Z,13.00
2018-07-24T06:41:50.271Z,12.80
2018-07-24T06:42:50.237Z,12.20
2018-07-24T06:43:50.195Z,12.40
2018-07-24T06:44:50.186Z,11.60
2018-07-24T06:45:50.148Z,12.30
2018-07-24T06:46:50.111Z,12.00
2018-07-24T06:47:50.082Z,11.60
2018-07-24T06:48:50.058Z,11.40
2018-07-24T06:49:50.047Z,11.50
2018-07-24T06:50:49.996Z,11.40
2018-07-24T06:51:49.996Z,10.70
2018-07-24T06:52:49.926Z,9.80
2018-07-24T06:53:49.916Z,10.40
2018-07-24T06:54:49.911Z,11.30
2018-07-24T06:55:49.840Z,10.50
2018-07-24T06:56:49.861Z,10.20
2018-07-24T06:57:49.806Z,10.80
2018-07-24T06:58:49.755Z,9.60
2018-07-24T06:59:49.751Z,12.10
2018-07-24T07:00:49.717Z,10.30
2018-07-24T07:01:49.683Z,10.10
2018-07-24T07:02:49.643Z,9.90
2018-07-24T07:03:49.602Z,9.60
2018-07-24T07:04:49.590Z,10.00
2018-07-24T07:05:49.557Z,9.90
2018-07-24T07:06:49.530Z,10.00
2018-07-24T07:07:49.525Z,9.60
2018-07-24T07:08:49.471Z,9.90
2018-07-24T07:09:49.453Z,9.60
2018-07-24T07:10:49.416Z,9.40
2018-07-24T07:11:49.385Z,9.50
2018-07-24T07:12:49.368Z,9.50
2018-07-24T07:13:49.332Z,8.90
2018-07-24T07:14:49.323Z,9.40
2018-07-24T07:15:49.291Z,8.40
2018-07-24T07:16:49.283Z,9.20
2018-07-24T07:17:49.292Z,9.40
2018-07-24T07:18:49.223Z,11.40
2018-07-24T07:19:49.186Z,9.20
2018-07-24T07:20:49.168Z,9.20
2018-07-24T07:21:49.160Z,9.00
2018-07-24T07:22:49.130Z,8.70
2018-07-24T07:23:49.100Z,8.80
2018-07-24T07:24:49.129Z,8.00
2018-07-24T07:25:49.097Z,8.20
2018-07-24T07:26:49.054Z,8.60
2018-07-24T07:27:49.020Z,8.00
2018-07-24T07:28:49.000Z,7.80
2018-07-24T07:29:48.993Z,7.40
2018-07-24T07:30:48.956Z,7.80
2018-07-24T07:31:48.960Z,8.00
2018-07-24T07:32:48.921Z,7.60
2018-07-24T07:33:48.897Z,7.50
2018-07-24T07:34:48.875Z,7.30
2018-07-24T07:35:48.857Z,7.90
2018-07-24T07:36:48.848Z,7.40
2018-07-24T07:37:48.844Z,7.20
2018-07-24T07:38:48.801Z,8.00
2018-07-24T07:39:48.784Z,7.00
2018-07-24T07:40:48.767Z,6.40
2018-07-24T07:41:48.739Z,5.90
2018-07-24T07:42:48.713Z,6.60
2018-07-24T07:43:48.736Z,5.20
2018-07-24T07:44:48.686Z,5.60
2018-07-24T07:45:48.689Z,6.80
2018-07-24T07:46:48.652Z,4.90
2018-07-24T07:47:48.631Z,5.20
2018-07-24T07:48:48.628Z,5.50
2018-07-24T07:49:48.592Z,5.30
2018-07-24T07:50:48.573Z,7.20
2018-07-24T07:51:48.620Z,5.60
2018-07-24T07:52:48.566Z,6.30
2018-07-24T07:53:48.541Z,6.20
2018-07-24T07:54:48.517Z,5.60
2018-07-24T07:55:48.484Z,5.20
2018-07-24T07:56:48.479Z,5.80
2018-07-24T07:57:48.468Z,5.50
2018-07-24T07:58:48.498Z,5.70
2018-07-24T07:59:48.476Z,5.70
2018-07-24T08:00:48.416Z,5.30
2018-07-24T08:01:48.402Z,5.10
2018-07-24T08:02:48.381Z,5.20
2018-07-24T08:03:48.357Z,7.00
2018-07-24T08:04:48.345Z,5.50
2018-07-24T08:05:48.341Z,4.50
2018-07-24T08:06:48.326Z,5.50
2018-07-24T08:07:48.332Z,4.00
2018-07-24T08:08:48.295Z,3.40
2018-07-24T08:09:48.267Z,4.00
2018-07-24T08:10:48.439Z,3.90
2018-07-24T08:11:48.276Z,4.40
2018-07-24T08:12:48.216Z,4.00
2018-07-24T08:13:48.212Z,4.20
2018-07-24T08:14:48.217Z,4.20
2018-07-24T08:15:48.204Z,3.80
2018-07-24T08:16:48.146Z,5.20
2018-07-24T08:17:48.128Z,3.90
2018-07-24T08:18:48.127Z,4.00
2018-07-24T08:19:48.122Z,4.60
2018-07-24T08:20:48.081Z,3.60
2018-07-24T08:21:48.065Z,4.10
2018-07-24T08:22:48.056Z,3.80
2018-07-24T08:23:48.038Z,4.60
2018-07-24T08:24:48.037Z,4.10
2018-07-24T08:25:47.997Z,4.10
2018-07-24T08:26:48.033Z,4.60
2018-07-24T08:27:48.029Z,3.50
2018-07-24T08:28:47.951Z,4.30
2018-07-24T08:29:47.932Z,3.90
2018-07-24T08:30:47.919Z,4.10
2018-07-24T08:31:47.922Z,4.30
2018-07-24T08:32:47.892Z,4.70
2018-07-24T08:33:47.933Z,4.80
2018-07-24T08:34:47.882Z,4.10
2018-07-24T08:35:47.852Z,4.00
2018-07-24T08:36:47.850Z,4.20
2018-07-24T08:37:47.817Z,4.10
2018-07-24T08:38:47.796Z,4.40
2018-07-24T08:39:47.802Z,4.70
2018-07-24T08:40:47.784Z,4.80
2018-07-24T08:41:47.768Z,5.30
2018-07-24T08:42:47.743Z,4.20
2018-07-24T08:43:47.797Z,4.20
2018-07-24T08:44:47.788Z,5.00
2018-07-24T08:45:47.897Z,4.20
2018-07-24T08:46:47.678Z,4.50
2018-07-24T08:47:47.685Z,4.60
2018-07-24T08:48:47.648Z,4.50
2018-07-24T08:49:47.631Z,4.50
2018-07-24T08:50:47.629Z,4.50
2018-07-24T08:51:47.622Z,4.50
2018-07-24T08:52:47.716Z,4.60
2018-07-24T08:53:47.881Z,4.50
2018-07-24T08:54:47.817Z,4.70
2018-07-24T08:55:47.911Z,4.80
2018-07-24T08:56:47.529Z,4.50
2018-07-24T08:57:47.597Z,5.70
2018-07-24T08:58:47.497Z,4.40
2018-07-24T08:59:47.528Z,4.30
2018-07-24T09:00:47.506Z,4.10
2018-07-24T09:01:47.459Z,4.40
2018-07-24T09:02:47.441Z,4.60
2018-07-24T09:03:47.450Z,5.50
2018-07-24T09:04:47.437Z,6.10
2018-07-24T09:05:47.418Z,5.00
2018-07-24T09:06:47.377Z,4.60
2018-07-24T09:07:47.352Z,5.60
2018-07-24T09:08:47.339Z,4.70
2018-07-24T09:09:47.328Z,4.60
2018-07-24T09:10:47.314Z,4.40
2018-07-24T09:11:47.636Z,4.10
2018-07-24T09:12:47.269Z,4.70
2018-07-24T09:13:47.253Z,4.30
2018-07-24T09:14:47.250Z,4.10
2018-07-24T09:15:47.259Z,4.00
2018-07-24T09:16:47.215Z,4.00
2018-07-24T09:17:47.204Z,4.60
2018-07-24T09:18:47.199Z,4.30
2018-07-24T09:19:47.168Z,4.20
2018-07-24T09:20:47.166Z,4.40
2018-07-24T09:21:47.173Z,4.10
2018-07-24T09:22:47.121Z,4.50
2018-07-24T09:23:47.121Z,4.00
2018-07-24T09:24:47.117Z,5.70
2018-07-24T09:25:47.089Z,4.10
2018-07-24T09:26:47.053Z,5.20
2018-07-24T09:27:47.060Z,4.00
2018-07-24T09:28:47.028Z,4.20
2018-07-24T09:29:47.023Z,4.50
2018-07-24T09:30:46.991Z,4.20
2018-07-24T09:31:46.979Z,4.60
2018-07-24T09:32:46.965Z,5.10
2018-07-24T09:33:46.943Z,4.30
2018-07-24T09:34:46.957Z,3.90
2018-07-24T09:35:46.905Z,4.00
2018-07-24T09:36:46.934Z,4.10
2018-07-24T09:37:46.902Z,4.00
2018-07-24T09:38:46.868Z,4.50
2018-07-24T09:39:46.851Z,5.30
2018-07-24T09:40:46.838Z,4.40
2018-07-24T09:41:46.824Z,4.10
2018-07-24T09:42:46.860Z,4.10
2018-07-24T09:43:46.841Z,5.00
2018-07-24T09:44:46.786Z,5.20
2018-07-24T09:45:46.768Z,4.10
2018-07-24T09:46:46.748Z,4.30
2018-07-24T09:47:46.721Z,4.10
2018-07-24T09:48:46.808Z,4.40
2018-07-24T09:49:46.685Z,4.10
2018-07-24T09:50:46.663Z,4.00
2018-07-24T09:51:46.657Z,4.20
2018-07-24T09:52:47.422Z,3.80
2018-07-24T09:53:46.621Z,3.70
2018-07-24T09:54:46.610Z,3.80
2018-07-24T09:55:46.597Z,3.90
2018-07-24T09:56:46.577Z,3.90
2018-07-24T09:57:46.563Z,5.00
2018-07-24T09:58:46.545Z,3.70
2018-07-24T09:59:46.526Z,4.70
2018-07-24T10:00:46.503Z,4.10
2018-07-24T10:01:46.498Z,3.80
2018-07-24T10:02:48.006Z,4.00
2018-07-24T10:03:46.479Z,3.80
2018-07-24T10:04:46.483Z,3.70
2018-07-24T10:05:46.445Z,3.50
2018-07-24T10:06:46.434Z,3.90
2018-07-24T10:07:46.393Z,4.00
2018-07-24T10:08:46.401Z,4.00
2018-07-24T10:09:46.375Z,4.40
2018-07-24T10:10:46.351Z,4.00
2018-07-24T10:11:46.345Z,3.80
2018-07-24T10:12:46.341Z,3.90
2018-07-24T10:13:46.291Z,4.20
2018-07-24T10:14:46.296Z,5.20
2018-07-24T10:15:46.281Z,3.90
2018-07-24T10:16:46.306Z,3.90
2018-07-24T10:17:46.234Z,4.20
2018-07-24T10:18:46.301Z,4.00
2018-07-24T10:19:46.219Z,4.20
2018-07-24T10:20:46.183Z,5.60
2018-07-24T10:21:46.168Z,3.70
2018-07-24T10:22:46.141Z,3.60
2018-07-24T10:23:46.152Z,3.90
2018-07-24T10:24:46.108Z,4.20
2018-07-24T10:25:46.116Z,4.10
2018-07-24T10:26:46.085Z,3.80
2018-07-24T10:27:46.075Z,5.30
2018-07-24T10:28:46.073Z,3.70
2018-07-24T10:29:46.038Z,3.80
2018-07-24T10:30:46.293Z,5.00
2018-07-24T10:31:46.004Z,4.70
2018-07-24T10:32:46.026Z,3.90
2018-07-24T10:33:45.969Z,3.60
2018-07-24T10:34:45.994Z,3.80
2018-07-24T10:35:45.958Z,4.70
2018-07-24T10:36:45.928Z,3.80
2018-07-24T10:37:45.905Z,3.50
2018-07-24T10:38:45.881Z,3.90
2018-07-24T10:39:45.871Z,4.10
2018-07-24T10:40:45.852Z,3.50
2018-07-24T10:41:45.839Z,3.80
2018-07-24T10:42:45.819Z,3.30
2018-07-24T10:43:45.796Z,5.50
2018-07-24T10:44:45.803Z,3.60
2018-07-24T10:45:45.788Z,3.60
2018-07-24T10:46:45.816Z,3.20
2018-07-24T10:47:45.736Z,4.00
2018-07-24T10:48:45.700Z,3.90
2018-07-24T10:49:45.691Z,4.60
2018-07-24T10:50:45.689Z,3.90
2018-07-24T10:51:45.661Z,3.80
2018-07-24T10:52:45.640Z,4.00
2018-07-24T10:53:45.623Z,4.20
2018-07-24T10:54:45.618Z,3.50
2018-07-24T10:55:45.628Z,5.50
2018-07-24T10:56:45.583Z,3.60
2018-07-24T10:57:45.563Z,4.10
2018-07-24T10:58:45.548Z,4.50
2018-07-24T10:59:45.519Z,3.80
2018-07-24T11:00:45.519Z,5.40
2018-07-24T11:01:45.505Z,3.60
2018-07-24T11:02:45.480Z,4.00
2018-07-24T11:03:45.442Z,3.60
2018-07-24T11:04:45.469Z,4.20
2018-07-24T11:05:45.410Z,3.40
2018-07-24T11:06:45.519Z,3.80
2018-07-24T11:07:45.480Z,3.80
2018-07-24T11:08:45.360Z,5.00
2018-07-24T11:09:45.346Z,5.10
2018-07-24T11:10:45.333Z,3.50
2018-07-24T11:11:45.347Z,3.50
2018-07-24T11:12:45.299Z,3.90
2018-07-24T11:13:45.273Z,4.20
2018-07-24T11:14:45.255Z,3.40
2018-07-24T11:15:45.237Z,3.70
2018-07-24T11:16:45.257Z,3.30
2018-07-24T11:17:45.217Z,3.80
2018-07-24T11:18:45.192Z,3.30
2018-07-24T11:19:45.169Z,4.00
2018-07-24T11:20:45.164Z,4.40
2018-07-24T11:21:45.158Z,3.50
2018-07-24T11:22:45.287Z,3.90
2018-07-24T11:23:45.099Z,3.30
2018-07-24T11:24:45.086Z,3.50
2018-07-24T11:25:45.067Z,4.10
2018-07-24T11:26:45.067Z,3.50
2018-07-24T11:27:45.048Z,3.60
2018-07-24T11:28:45.036Z,3.50
2018-07-24T11:29:45.012Z,4.40
2018-07-24T11:30:44.982Z,5.20
2018-07-24T11:31:44.948Z,3.30
2018-07-24T11:32:44.941Z,3.60
2018-07-24T11:33:44.937Z,4.90
2018-07-24T11:34:44.921Z,4.30
2018-07-24T11:35:45.035Z,3.50
2018-07-24T11:36:44.859Z,3.60
2018-07-24T11:37:44.852Z,5.70
2018-07-24T11:38:44.833Z,3.20
2018-07-24T11:39:44.805Z,3.20
2018-07-24T11:40:44.795Z,3.30
2018-07-24T11:41:44.777Z,3.50
2018-07-24T11:42:44.763Z,3.50
2018-07-24T11:43:44.746Z,3.20
2018-07-24T11:44:44.729Z,3.60
2018-07-24T11:45:44.714Z,3.70
2018-07-24T11:46:44.758Z,3.10
2018-07-24T11:47:44.660Z,3.60
2018-07-24T11:48:44.662Z,3.40
2018-07-24T11:49:44.644Z,3.60
2018-07-24T11:50:44.620Z,3.70
2018-07-24T11:51:44.665Z,5.10
2018-07-24T11:52:44.587Z,4.00
2018-07-24T11:53:44.564Z,4.30
2018-07-24T11:54:44.532Z,3.50
2018-07-24T11:55:44.534Z,3.40
2018-07-24T11:56:44.513Z,3.70
2018-07-24T11:57:44.522Z,3.30
2018-07-24T11:58:44.552Z,3.70
2018-07-24T11:59:44.487Z,3.90
2018-07-24T12:00:44.444Z,3.30
2018-07-24T12:01:44.411Z,3.70
2018-07-24T12:02:44.424Z,3.40
2018-07-24T12:03:44.416Z,3.10
2018-07-24T12:04:44.374Z,3.20
2018-07-24T12:05:44.363Z,4.20
2018-07-24T12:06:44.344Z,3.60
2018-07-24T12:07:44.359Z,3.80
2018-07-24T12:08:44.300Z,3.20
2018-07-24T12:09:44.286Z,3.90
2018-07-24T12:10:44.290Z,4.50
2018-07-24T12:11:44.261Z,3.50
2018-07-24T12:12:44.231Z,4.30
2018-07-24T12:13:44.231Z,3.10
2018-07-24T12:14:44.254Z,3.40
2018-07-24T12:15:44.206Z,5.70
2018-07-24T12:16:44.172Z,3.20
2018-07-24T12:17:44.136Z,3.10
2018-07-24T12:18:44.134Z,3.40
2018-07-24T12:19:44.143Z,3.50
2018-07-24T12:20:44.095Z,3.50
2018-07-24T12:21:44.130Z,5.10
2018-07-24T12:22:44.059Z,4.70
2018-07-24T12:23:44.038Z,3.60
2018-07-24T12:24:44.070Z,4.70
2018-07-24T12:25:43.995Z,3.60
2018-07-24T12:26:44.002Z,3.50
2018-07-24T12:27:43.969Z,3.50
2018-07-24T12:28:43.979Z,5.00
2018-07-24T12:29:43.955Z,3.40
2018-07-24T12:30:43.911Z,4.50
2018-07-24T12:31:43.896Z,3.50
2018-07-24T12:32:43.905Z,3.50
2018-07-24T12:33:43.860Z,4.80
2018-07-24T12:34:43.850Z,4.10
2018-07-24T12:35:43.897Z,4.50
2018-07-24T12:36:43.829Z,3.50
2018-07-24T12:37:43.829Z,3.70
2018-07-24T12:38:43.808Z,4.50
2018-07-24T12:39:43.754Z,3.90
2018-07-24T12:40:43.751Z,4.30
2018-07-24T12:41:43.714Z,3.40
2018-07-24T12:42:43.719Z,4.50
2018-07-24T12:43:43.834Z,4.20
2018-07-24T12:44:43.669Z,3.70
2018-07-24T12:45:43.662Z,3.40
2018-07-24T12:46:43.647Z,4.50
2018-07-24T12:47:43.631Z,3.80
2018-07-24T12:48:43.601Z,3.60
2018-07-24T12:49:43.607Z,3.60
2018-07-24T12:50:43.563Z,3.60
2018-07-24T12:51:43.563Z,3.50
2018-07-24T12:52:43.527Z,4.90
2018-07-24T12:53:43.527Z,3.80
2018-07-24T12:54:43.494Z,3.40
2018-07-24T12:55:43.478Z,3.30
2018-07-24T12:56:43.481Z,3.20
2018-07-24T12:57:43.452Z,3.90
2018-07-24T12:58:43.427Z,3.20
2018-07-24T12:59:43.401Z,3.20
2018-07-24T13:00:43.397Z,3.80
2018-07-24T13:01:43.385Z,3.40
2018-07-24T13:02:43.364Z,4.80
2018-07-24T13:03:43.346Z,3.60